createdAt,value
2018-11-04T00:01:29.431Z,95.10
2018-11-04T00:03:31.579Z,95.10
2018-11-04T00:05:33.722Z,95.00
2018-11-04T00:07:35.917Z,94.80
2018-11-04T00:09:38.051Z,94.90
2018-11-04T00:11:40.294Z,94.70
2018-11-04T00:13:42.495Z,95.00
2018-11-04T00:15:45.778Z,95.00
2018-11-04T00:17:47.928Z,95.00
2018-11-04T00:19:50.092Z,95.00
2018-11-04T00:21:52.274Z,95.50
2018-11-04T00:23:54.515Z,95.80
2018-11-04T00:25:56.644Z,95.70
2018-11-04T00:27:58.902Z,95.90
2018-11-04T00:30:01.213Z,96.00
2018-11-04T00:32:03.274Z,96.30
2018-11-04T00:34:05.513Z,96.70
2018-11-04T00:36:08.459Z,96.90
2018-11-04T00:38:10.672Z,96.90
2018-11-04T00:40:12.938Z,97.00
2018-11-04T00:42:15.257Z,97.20
2018-11-04T00:44:17.490Z,97.40
2018-11-04T00:46:19.687Z,97.60
2018-11-04T00:48:21.943Z,97.70
2018-11-04T00:50:24.136Z,97.90
2018-11-04T00:52:26.326Z,97.90
2018-11-04T00:54:28.508Z,97.90
2018-11-04T00:56:30.721Z,98.00
2018-11-04T00:58:32.918Z,98.30
2018-11-04T01:00:35.086Z,98.50
2018-11-04T01:02:37.262Z,98.50
2018-11-04T01:04:39.441Z,98.50
2018-11-04T01:06:41.674Z,98.70
2018-11-04T01:08:43.909Z,98.80
2018-11-04T01:10:46.008Z,98.80
2018-11-04T01:12:48.241Z,98.50
2018-11-04T01:14:50.450Z,98.50
2018-11-04T01:16:52.671Z,98.50
2018-11-04T01:18:54.846Z,98.60
2018-11-04T01:20:57.065Z,98.90
2018-11-04T01:22:59.361Z,99.00
2018-11-04T01:25:01.602Z,99.20
2018-11-04T01:27:03.954Z,99.20
2018-11-04T01:29:06.285Z,99.30
2018-11-04T01:31:08.487Z,99.50
2018-11-04T01:33:10.724Z,99.70
2018-11-04T01:35:12.983Z,99.80
2018-11-04T01:37:15.227Z,99.90
2018-11-04T01:39:17.444Z,99.90
2018-11-04T01:41:19.653Z,99.90
2018-11-04T01:43:21.816Z,99.90
2018-11-04T01:45:24.019Z,99.90
2018-11-04T01:47:26.234Z,99.90
2018-11-04T01:49:28.422Z,99.90
2018-11-04T01:51:30.619Z,99.90
2018-11-04T01:53:32.847Z,99.90
2018-11-04T01:55:35.037Z,99.90
2018-11-04T01:57:37.420Z,99.90
2018-11-04T01:59:39.621Z,99.90
2018-11-04T02:01:41.867Z,99.90
2018-11-04T02:03:44.119Z,99.90
2018-11-04T02:05:46.294Z,99.90
2018-11-04T02:07:48.499Z,99.90
2018-11-04T02:09:50.672Z,99.90
2018-11-04T02:11:52.866Z,99.90
2018-11-04T02:13:55.059Z,99.90
2018-11-04T02:15:57.255Z,99.90
2018-11-04T02:17:59.430Z,99.90
2018-11-04T02:20:01.657Z,99.90
2018-11-04T02:22:03.865Z,99.90
2018-11-04T02:24:06.091Z,99.90
2018-11-04T02:26:08.306Z,99.90
2018-11-04T02:28:10.596Z,99.90
2018-11-04T02:30:14.766Z,99.90
2018-11-04T02:32:17.045Z,99.90
2018-11-04T02:34:19.243Z,99.90
2018-11-04T02:36:21.423Z,99.90
2018-11-04T02:38:23.674Z,99.90
2018-11-04T02:40:25.902Z,99.90
2018-11-04T02:42:28.112Z,99.90
2018-11-04T02:44:30.287Z,99.90
2018-11-04T02:46:32.471Z,99.90
2018-11-04T02:48:34.939Z,99.90
2018-11-04T02:50:37.128Z,99.90
2018-11-04T02:52:39.661Z,99.90
2018-11-04T02:54:41.851Z,99.90
2018-11-04T02:56:44.249Z,99.90
2018-11-04T02:58:46.429Z,99.90
2018-11-04T03:00:48.619Z,99.90
2018-11-04T03:02:50.806Z,99.90
2018-11-04T03:04:52.990Z,99.90
2018-11-04T03:06:55.209Z,99.90
2018-11-04T03:08:57.439Z,99.90
2018-11-04T03:10:59.674Z,99.90
2018-11-04T03:13:01.825Z,99.90
2018-11-04T03:15:04.106Z,99.90
2018-11-04T03:17:06.281Z,99.90
2018-11-04T03:19:08.487Z,99.90
2018-11-04T03:21:10.678Z,99.90
2018-11-04T03:23:12.856Z,99.90
2018-11-04T03:25:15.033Z,99.90
2018-11-04T03:27:17.261Z,99.90
2018-11-04T03:29:26.525Z,99.90
2018-11-04T03:31:28.735Z,99.90
2018-11-04T03:33:30.973Z,99.90
2018-11-04T03:35:33.137Z,99.90
2018-11-04T03:37:35.362Z,99.90
2018-11-04T03:39:37.501Z,99.90
2018-11-04T03:41:40.306Z,99.90
2018-11-04T03:59:37.179Z,99.90
2018-11-04T04:01:39.273Z,99.90
2018-11-04T04:03:41.400Z,99.90
2018-11-04T04:05:43.524Z,99.90
2018-11-04T04:07:45.678Z,99.90
2018-11-04T04:09:47.902Z,99.90
2018-11-04T04:11:50.050Z,99.90
2018-11-04T04:13:52.190Z,99.90
2018-11-04T04:15:55.051Z,99.90
2018-11-04T04:17:57.280Z,99.90
2018-11-04T04:19:59.478Z,99.90
2018-11-04T04:22:01.722Z,99.90
2018-11-04T04:24:03.988Z,99.90
2018-11-04T04:26:06.677Z,99.90
2018-11-04T04:28:08.897Z,99.90
2018-11-04T04:30:11.482Z,99.90
2018-11-04T04:32:13.667Z,99.90
2018-11-04T04:34:15.857Z,99.90
2018-11-04T04:36:18.032Z,99.90
2018-11-04T04:38:20.339Z,99.90
2018-11-04T04:40:22.531Z,99.90
2018-11-04T04:42:24.712Z,99.90
2018-11-04T04:44:26.900Z,99.90
2018-11-04T04:46:29.290Z,99.90
2018-11-04T04:48:31.522Z,99.90
2018-11-04T04:50:33.775Z,99.90
2018-11-04T04:52:35.971Z,99.90
2018-11-04T04:54:38.132Z,99.90
2018-11-04T04:56:40.294Z,99.90
2018-11-04T04:58:42.490Z,99.90
2018-11-04T05:00:44.675Z,99.90
2018-11-04T05:02:46.854Z,99.90
2018-11-04T05:04:49.079Z,99.90
2018-11-04T05:06:51.293Z,99.90
2018-11-04T05:08:53.472Z,99.90
2018-11-04T05:10:59.586Z,99.90
2018-11-04T05:13:01.781Z,99.90
2018-11-04T05:15:17.658Z,99.90
2018-11-04T05:17:19.821Z,99.90
2018-11-04T05:19:22.010Z,99.90
2018-11-04T05:21:24.221Z,99.90
2018-11-04T05:57:40.383Z,99.90
2018-11-04T05:59:42.614Z,99.90
2018-11-04T06:01:44.816Z,99.90
2018-11-04T06:03:47.004Z,99.90
2018-11-04T06:05:49.135Z,99.90
2018-11-04T06:07:51.277Z,99.90
2018-11-04T06:12:31.163Z,99.90
2018-11-04T06:14:33.318Z,99.90
2018-11-04T06:16:35.458Z,99.90
2018-11-04T06:18:37.695Z,99.90
2018-11-04T06:20:39.870Z,99.90
2018-11-04T06:22:42.995Z,99.90
2018-11-04T06:24:45.162Z,99.90
2018-11-04T06:26:47.531Z,99.90
2018-11-04T06:28:49.666Z,99.90
2018-11-04T06:30:51.804Z,99.90
2018-11-04T06:32:53.983Z,99.90
2018-11-04T06:34:56.179Z,99.90
2018-11-04T06:36:58.334Z,99.90
2018-11-04T06:39:00.580Z,99.90
2018-11-04T06:41:02.759Z,99.90
2018-11-04T06:43:04.942Z,99.90
2018-11-04T06:45:07.751Z,99.90
2018-11-04T06:47:09.928Z,99.90
2018-11-04T06:49:12.041Z,99.90
2018-11-04T06:51:14.249Z,99.90
2018-11-04T06:53:16.406Z,99.90
2018-11-04T06:55:18.599Z,99.90
2018-11-04T06:57:20.778Z,99.90
2018-11-04T06:59:22.950Z,99.90
2018-11-04T07:01:25.180Z,99.90
2018-11-04T07:03:27.330Z,99.90
2018-11-04T07:05:29.467Z,99.90
2018-11-04T07:07:31.652Z,99.90
2018-11-04T07:09:33.872Z,99.90
2018-11-04T07:11:36.117Z,99.90
2018-11-04T07:13:38.365Z,99.90
2018-11-04T07:18:18.814Z,99.90
2018-11-04T07:20:20.964Z,99.90
2018-11-04T07:22:23.161Z,99.90
2018-11-04T07:24:25.375Z,99.90
2018-11-04T07:26:27.542Z,99.90
2018-11-04T07:28:29.724Z,99.90
2018-11-04T07:30:36.547Z,99.90
2018-11-04T07:32:38.782Z,99.90
2018-11-04T07:34:40.947Z,99.90
2018-11-04T07:36:43.115Z,99.90
2018-11-04T07:38:45.275Z,99.90
2018-11-04T07:40:47.491Z,99.90
2018-11-04T07:48:06.031Z,99.90
2018-11-04T07:50:10.126Z,99.90
2018-11-04T07:52:12.476Z,99.90
2018-11-04T07:54:14.662Z,99.90
2018-11-04T07:56:17.006Z,99.90
2018-11-04T07:58:19.224Z,99.90
2018-11-04T08:00:21.437Z,99.90
2018-11-04T08:02:23.733Z,99.90
2018-11-04T08:04:25.891Z,99.90
2018-11-04T08:09:06.776Z,99.90
2018-11-04T08:42:44.943Z,99.90
2018-11-04T08:45:09.871Z,99.90
2018-11-04T08:47:12.036Z,99.90
2018-11-04T10:30:34.550Z,99.90
2018-11-04T10:32:36.698Z,99.90
2018-11-04T10:34:38.782Z,99.90
2018-11-04T10:36:40.928Z,99.90
2018-11-04T10:38:43.034Z,99.90
2018-11-04T10:40:45.123Z,99.90
2018-11-04T10:42:47.226Z,99.90
2018-11-04T10:44:49.332Z,99.90
2018-11-04T10:46:51.438Z,99.90
2018-11-04T10:48:53.562Z,99.90
2018-11-04T10:50:55.773Z,99.90
2018-11-04T10:52:57.895Z,99.90
2018-11-04T10:55:00.040Z,99.90
2018-11-04T10:57:02.196Z,99.90
2018-11-04T10:59:04.594Z,99.90
2018-11-04T11:01:08.041Z,99.90
2018-11-04T11:03:10.194Z,99.90
2018-11-04T11:05:12.367Z,99.90
2018-11-04T11:07:14.670Z,99.90
2018-11-04T11:09:18.842Z,99.90
2018-11-04T11:11:20.958Z,99.50
2018-11-04T11:13:23.091Z,99.20
2018-11-04T11:15:25.183Z,98.80
2018-11-04T11:17:27.293Z,99.40
2018-11-04T11:19:29.439Z,98.50
2018-11-04T11:21:31.629Z,99.00
2018-11-04T11:23:33.808Z,98.30
2018-11-04T11:25:36.036Z,98.90
2018-11-04T11:27:38.207Z,99.40
2018-11-04T11:29:40.408Z,99.10
2018-11-04T11:31:42.638Z,97.90
2018-11-04T11:33:44.799Z,98.10
2018-11-04T11:35:46.984Z,97.30
2018-11-04T11:37:49.241Z,97.70
2018-11-04T11:39:51.450Z,98.30
2018-11-04T11:41:53.667Z,98.70
2018-11-04T11:43:55.902Z,98.30
2018-11-04T11:45:58.027Z,97.10
2018-11-04T11:48:00.539Z,97.50
2018-11-04T11:50:03.009Z,97.50
2018-11-04T11:52:05.158Z,97.10
2018-11-04T11:54:07.502Z,96.70
2018-11-04T11:56:09.647Z,96.80
2018-11-04T11:58:11.790Z,97.00
2018-11-04T12:00:13.943Z,97.00
2018-11-04T12:02:17.153Z,96.90
2018-11-04T12:04:21.399Z,96.70
2018-11-04T12:06:23.726Z,98.00
2018-11-04T12:08:25.863Z,97.60
2018-11-04T12:10:28.006Z,96.70
2018-11-04T12:12:30.220Z,97.70
2018-11-04T12:14:32.424Z,96.50
2018-11-04T12:16:34.558Z,97.90
2018-11-04T12:18:36.702Z,97.90
2018-11-04T12:20:38.919Z,97.50
2018-11-04T12:22:41.203Z,97.60
2018-11-04T12:24:43.395Z,97.60
2018-11-04T12:26:45.490Z,97.30
2018-11-04T12:28:47.617Z,96.80
2018-11-04T12:30:49.773Z,97.50
2018-11-04T12:32:52.005Z,98.00
2018-11-04T12:34:54.592Z,97.10
2018-11-04T12:36:56.847Z,96.60
2018-11-04T12:38:58.963Z,96.60
2018-11-04T12:41:01.154Z,97.20
2018-11-04T12:43:03.312Z,96.90
2018-11-04T12:45:06.743Z,95.90
2018-11-04T12:47:09.002Z,95.70
2018-11-04T12:49:11.223Z,96.40
2018-11-04T12:51:13.478Z,95.80
2018-11-04T12:53:15.862Z,94.60
2018-11-04T12:55:18.131Z,94.70
2018-11-04T12:57:20.357Z,92.10
2018-11-04T12:59:22.571Z,93.70
2018-11-04T13:01:24.778Z,91.50
2018-11-04T13:03:26.995Z,91.50
2018-11-04T13:05:29.165Z,92.10
2018-11-04T13:07:31.351Z,91.00
2018-11-04T13:09:33.541Z,90.90
2018-11-04T13:11:36.398Z,84.80
2018-11-04T13:13:38.591Z,83.10
2018-11-04T13:15:40.727Z,86.40
2018-11-04T13:17:43.407Z,85.50
2018-11-04T13:19:45.529Z,71.70
2018-11-04T13:21:47.666Z,67.90
2018-11-04T13:23:49.905Z,61.30
2018-11-04T13:25:52.100Z,58.40
2018-11-04T13:27:54.257Z,60.80
2018-11-04T13:29:56.433Z,59.90
2018-11-04T13:31:58.814Z,62.10
2018-11-04T13:34:01.045Z,63.60
2018-11-04T13:36:03.295Z,69.40
2018-11-04T13:38:05.425Z,69.40
2018-11-04T13:40:09.151Z,73.30
2018-11-04T13:42:11.337Z,73.70
2018-11-04T13:44:13.457Z,76.30
2018-11-04T13:46:15.671Z,79.70
2018-11-04T13:48:17.878Z,85.60
2018-11-04T13:50:20.022Z,89.40
2018-11-04T13:52:22.205Z,90.10
2018-11-04T13:54:24.376Z,90.20
2018-11-04T13:56:26.513Z,92.20
2018-11-04T13:58:28.717Z,92.10
2018-11-04T14:00:30.933Z,92.50
2018-11-04T14:02:33.106Z,93.00
2018-11-04T14:04:35.271Z,93.00
2018-11-04T14:06:37.407Z,93.10
2018-11-04T14:08:39.600Z,93.40
2018-11-04T14:10:41.828Z,93.50
2018-11-04T14:12:45.023Z,93.10
2018-11-04T14:14:47.235Z,92.90
2018-11-04T14:16:49.378Z,93.50
2018-11-04T14:18:51.550Z,93.90
2018-11-04T14:20:53.713Z,94.00
2018-11-04T14:22:55.855Z,93.90
2018-11-04T14:24:58.054Z,93.90
2018-11-04T14:27:00.205Z,94.20
2018-11-04T14:29:02.305Z,94.40
2018-11-04T14:31:04.544Z,94.50
2018-11-04T14:33:06.553Z,94.60
2018-11-04T14:35:09.594Z,94.90
2018-11-04T14:37:11.687Z,95.00
2018-11-04T14:39:13.770Z,95.00
2018-11-04T14:41:15.856Z,94.90
2018-11-04T14:43:17.955Z,95.30
2018-11-04T14:45:20.058Z,95.30
2018-11-04T14:47:22.149Z,95.80
2018-11-04T14:49:24.258Z,95.70
2018-11-04T14:51:26.397Z,95.50
2018-11-04T14:53:28.473Z,95.60
2018-11-04T14:55:30.571Z,95.90
2018-11-04T14:57:32.730Z,95.80
2018-11-04T14:59:34.886Z,95.70
2018-11-04T15:01:37.101Z,95.80
2018-11-04T15:03:39.150Z,96.10
2018-11-04T15:05:41.302Z,96.00
2018-11-04T15:07:43.403Z,96.50
2018-11-04T15:09:45.521Z,96.70
2018-11-04T15:11:47.665Z,97.10
2018-11-04T15:13:49.741Z,97.20
2018-11-04T15:15:51.841Z,97.10
2018-11-04T15:17:53.915Z,97.10
2018-11-04T15:19:55.989Z,97.10
2018-11-04T15:21:58.079Z,97.30
2018-11-04T15:24:00.141Z,97.90
2018-11-04T15:26:02.221Z,97.60
2018-11-04T15:28:04.322Z,97.30
2018-11-04T15:30:07.257Z,97.40
2018-11-04T15:32:09.326Z,97.10
2018-11-04T15:34:11.437Z,97.50
2018-11-04T15:36:13.479Z,97.50
2018-11-04T15:38:15.543Z,97.50
2018-11-04T15:40:17.633Z,97.50
2018-11-04T15:42:19.661Z,97.60
2018-11-04T15:44:21.738Z,98.00
2018-11-04T15:46:23.791Z,98.50
2018-11-04T15:48:25.863Z,98.30
2018-11-04T15:50:27.967Z,98.40
2018-11-04T15:52:30.046Z,98.40
2018-11-04T15:54:32.095Z,98.60
2018-11-04T15:56:34.215Z,98.70
2018-11-04T15:58:36.298Z,98.80
2018-11-04T16:00:38.383Z,98.80
2018-11-04T16:02:40.475Z,99.00
2018-11-04T16:04:45.122Z,99.10
2018-11-04T16:06:45.111Z,99.00
2018-11-04T16:08:47.151Z,99.10
2018-11-04T16:10:49.229Z,99.10
2018-11-04T16:12:51.282Z,98.90
2018-11-04T16:14:53.411Z,99.10
2018-11-04T16:16:55.466Z,99.20
2018-11-04T16:18:57.566Z,99.20
2018-11-04T16:20:59.725Z,98.90
2018-11-04T16:23:01.901Z,99.30
2018-11-04T16:25:04.595Z,99.30
2018-11-04T16:27:06.773Z,99.40
2018-11-04T16:29:08.956Z,99.40
2018-11-04T16:31:11.217Z,99.40
2018-11-04T16:35:43.986Z,99.60
2018-11-04T16:37:46.227Z,99.50
2018-11-04T16:39:48.231Z,99.70
2018-11-04T16:41:50.253Z,99.70
2018-11-04T16:43:52.383Z,99.70
2018-11-04T16:45:54.313Z,99.80
2018-11-04T16:47:56.345Z,99.80
2018-11-04T16:49:58.396Z,99.90
2018-11-04T16:52:00.417Z,99.70
2018-11-04T16:54:02.554Z,99.80
2018-11-04T16:56:05.505Z,99.70
2018-11-04T16:58:08.279Z,99.70
2018-11-04T17:00:10.970Z,99.50
2018-11-04T17:02:13.025Z,99.60
2018-11-04T17:04:15.356Z,99.70
2018-11-04T17:06:17.287Z,99.70
2018-11-04T17:08:19.780Z,99.80
2018-11-04T17:10:25.117Z,99.60
2018-11-04T17:12:27.377Z,99.60
2018-11-04T17:14:29.655Z,99.80
2018-11-04T17:16:31.934Z,99.80
2018-11-04T17:18:34.333Z,99.90
2018-11-04T17:20:36.580Z,99.90
2018-11-04T17:22:38.935Z,99.90
2018-11-04T17:24:41.089Z,99.90
2018-11-04T17:26:43.312Z,99.90
2018-11-04T17:28:45.505Z,99.90
2018-11-04T17:30:47.716Z,99.90
2018-11-04T17:32:49.896Z,99.90
2018-11-04T17:34:52.048Z,99.90
2018-11-04T17:36:54.330Z,99.90
2018-11-04T17:38:56.551Z,99.90
2018-11-04T17:40:58.786Z,99.90
2018-11-04T17:43:01.001Z,99.90
2018-11-04T17:45:03.260Z,99.90
2018-11-04T17:47:05.503Z,99.90
2018-11-04T17:49:08.375Z,99.90
2018-11-04T17:51:10.563Z,99.90
2018-11-04T17:53:12.777Z,99.90
2018-11-04T17:55:15.165Z,99.90
2018-11-04T17:57:17.459Z,99.90
2018-11-04T17:59:19.658Z,99.90
2018-11-04T18:01:21.954Z,99.90
2018-11-04T18:03:24.228Z,99.90
2018-11-04T18:05:26.484Z,99.90
2018-11-04T18:07:28.816Z,99.90
2018-11-04T18:09:31.081Z,99.90
2018-11-04T18:11:33.346Z,99.90
2018-11-04T18:13:35.615Z,99.90
2018-11-04T18:15:37.844Z,99.90
2018-11-04T18:17:40.229Z,99.90
2018-11-04T18:19:42.398Z,99.90
2018-11-04T18:21:47.354Z,99.90
2018-11-04T18:23:49.578Z,99.90
2018-11-04T18:25:51.819Z,99.90
2018-11-04T18:27:54.002Z,99.90
2018-11-04T18:29:56.203Z,99.90
2018-11-04T18:31:58.412Z,99.90
2018-11-04T18:34:00.682Z,99.90
2018-11-04T18:36:03.023Z,99.90
2018-11-04T18:38:05.316Z,99.90
2018-11-04T18:40:09.471Z,99.90
2018-11-04T18:42:11.673Z,99.90
2018-11-04T18:44:15.780Z,99.90
2018-11-04T18:46:17.939Z,99.90
2018-11-04T18:48:20.171Z,99.90
2018-11-04T18:50:22.402Z,99.90
2018-11-04T18:52:24.656Z,99.90
2018-11-04T18:54:26.779Z,99.90
2018-11-04T18:56:29.043Z,99.90
2018-11-04T18:58:31.278Z,99.90
2018-11-04T19:00:33.450Z,99.90
2018-11-04T19:02:35.653Z,99.90
2018-11-04T19:04:37.836Z,99.90
2018-11-04T19:06:40.057Z,99.90
2018-11-04T19:08:43.627Z,99.90
2018-11-04T19:10:45.879Z,99.90
2018-11-04T19:12:48.090Z,99.90
2018-11-04T19:14:52.264Z,99.90
2018-11-04T19:16:54.427Z,99.90
2018-11-04T19:18:56.651Z,99.90
2018-11-04T19:20:58.838Z,99.90
2018-11-04T19:23:01.065Z,99.90
2018-11-04T19:25:03.264Z,99.90
2018-11-04T19:27:05.384Z,99.90
2018-11-04T19:29:07.828Z,99.90
2018-11-04T19:31:11.084Z,99.90
2018-11-04T19:33:13.206Z,99.90
2018-11-04T19:35:16.113Z,99.90
2018-11-04T19:37:18.403Z,99.90
2018-11-04T19:39:20.638Z,99.90
2018-11-04T19:41:22.797Z,99.90
2018-11-04T19:43:24.961Z,99.90
2018-11-04T19:45:27.202Z,99.90
2018-11-04T19:47:29.347Z,99.90
2018-11-04T19:49:31.510Z,99.90
2018-11-04T19:51:33.859Z,99.90
2018-11-04T19:53:36.363Z,99.90
2018-11-04T19:55:38.908Z,99.90
2018-11-04T19:57:41.227Z,99.90
2018-11-04T19:59:43.431Z,99.90
2018-11-04T20:01:45.613Z,99.90
2018-11-04T20:03:47.787Z,99.90
2018-11-04T20:05:50.175Z,99.90
2018-11-04T20:07:52.311Z,99.90
2018-11-04T20:09:54.554Z,99.90
2018-11-04T20:11:56.965Z,99.90
2018-11-04T20:14:05.073Z,99.90
2018-11-04T20:16:07.260Z,99.90
2018-11-04T20:18:15.438Z,99.90
2018-11-04T20:20:22.245Z,99.90
2018-11-04T20:22:24.370Z,99.90
2018-11-04T20:24:32.170Z,99.90
2018-11-04T20:26:34.404Z,99.90
2018-11-04T20:28:36.547Z,99.90
2018-11-04T20:30:38.711Z,99.90
2018-11-04T20:32:46.462Z,99.90
2018-11-04T20:34:48.731Z,99.90
2018-11-04T20:36:51.170Z,99.90
2018-11-04T20:38:58.958Z,99.90
2018-11-04T20:41:06.796Z,99.90
2018-11-04T20:43:08.859Z,99.90
2018-11-04T20:45:11.143Z,99.90
2018-11-04T20:47:13.568Z,99.90
2018-11-04T20:49:21.373Z,99.90
2018-11-04T20:51:23.445Z,99.90
2018-11-04T20:53:25.478Z,99.90
2018-11-04T20:55:32.144Z,99.90
2018-11-04T20:57:35.349Z,99.90
2018-11-04T20:59:37.344Z,99.90
2018-11-04T21:01:39.406Z,99.90
2018-11-04T21:03:41.896Z,99.90
2018-11-04T21:05:43.973Z,99.90
2018-11-04T21:07:46.046Z,99.90
2018-11-04T21:09:48.127Z,99.90
2018-11-04T21:11:50.147Z,99.90
2018-11-04T21:13:52.190Z,99.90
2018-11-04T21:15:54.281Z,99.90
2018-11-04T21:17:56.305Z,99.90
2018-11-04T21:19:58.365Z,99.90
2018-11-04T21:22:00.398Z,99.90
2018-11-04T21:24:02.431Z,99.90
2018-11-04T21:26:04.638Z,99.90
2018-11-04T21:28:06.762Z,99.90
2018-11-04T21:30:09.966Z,99.90
2018-11-04T21:32:12.030Z,99.90
2018-11-04T21:34:14.174Z,99.90
2018-11-04T21:36:19.185Z,99.90
2018-11-04T21:38:21.189Z,99.90
2018-11-04T21:40:23.317Z,99.90
2018-11-04T21:42:25.441Z,99.90
2018-11-04T21:44:27.517Z,99.90
2018-11-04T21:46:29.451Z,99.90
2018-11-04T21:48:31.493Z,99.90
2018-11-04T21:50:33.574Z,99.90
2018-11-04T21:52:35.729Z,99.90
2018-11-04T21:54:37.771Z,99.90
2018-11-04T21:56:39.968Z,99.90
2018-11-04T21:58:41.903Z,99.90
2018-11-04T22:00:43.974Z,99.90
2018-11-04T22:02:46.301Z,99.90
2018-11-04T22:04:48.252Z,99.90
2018-11-04T22:06:50.189Z,99.90
2018-11-04T22:08:52.240Z,99.90
2018-11-04T22:10:54.282Z,99.90
2018-11-04T22:12:56.323Z,99.90
2018-11-04T22:14:58.373Z,99.90
2018-11-04T22:17:00.442Z,99.90
2018-11-04T22:19:02.504Z,99.90
2018-11-04T22:21:04.617Z,99.90
2018-11-04T22:23:06.714Z,99.90
2018-11-04T22:25:09.725Z,99.90
2018-11-04T22:27:11.786Z,99.90
2018-11-04T22:29:13.829Z,99.90
2018-11-04T22:31:15.877Z,99.90
2018-11-04T22:33:17.907Z,99.90
2018-11-04T22:35:19.971Z,99.90
2018-11-04T22:37:22.026Z,99.90
2018-11-04T22:39:24.064Z,99.90
2018-11-04T22:41:26.174Z,99.90
2018-11-04T22:43:28.213Z,99.90
2018-11-04T22:45:30.306Z,99.90
2018-11-04T22:47:32.355Z,99.90
2018-11-04T22:49:34.398Z,99.90
2018-11-04T22:51:36.453Z,99.90
2018-11-04T22:53:38.513Z,99.90
2018-11-04T22:55:40.625Z,99.90
2018-11-04T22:57:43.219Z,99.90
2018-11-04T22:59:45.251Z,99.90
2018-11-04T23:01:47.299Z,99.90
2018-11-04T23:03:49.345Z,99.90
2018-11-04T23:05:51.395Z,99.90
2018-11-04T23:07:53.443Z,99.90
2018-11-04T23:09:55.489Z,99.90
2018-11-04T23:11:57.530Z,99.90
2018-11-04T23:13:59.589Z,99.90
2018-11-04T23:16:01.682Z,99.90
2018-11-04T23:18:03.818Z,99.90
2018-11-04T23:20:06.355Z,99.90
2018-11-04T23:22:08.386Z,99.90
2018-11-04T23:24:10.426Z,99.90
2018-11-04T23:26:12.486Z,99.90
2018-11-04T23:28:14.543Z,99.90
2018-11-04T23:30:17.785Z,99.90
2018-11-04T23:32:19.811Z,99.90
2018-11-04T23:34:21.857Z,99.90
2018-11-04T23:36:23.901Z,99.90
2018-11-04T23:38:25.934Z,99.90
2018-11-04T23:40:28.013Z,99.90
2018-11-04T23:42:30.084Z,99.90
2018-11-04T23:44:32.126Z,99.90
2018-11-04T23:46:34.171Z,99.90
2018-11-04T23:48:36.206Z,99.90
2018-11-04T23:50:38.277Z,99.90
2018-11-04T23:52:40.469Z,99.90
2018-11-04T23:54:42.543Z,99.90
2018-11-04T23:56:44.641Z,99.90
2018-11-04T23:58:46.692Z,99.90
